createdAt,value
2023-02-15T00:02:45.392Z,9.53
2023-02-15T00:05:48.406Z,10.35
2023-02-15T00:08:51.625Z,10.32
2023-02-15T00:11:54.940Z,10.48
2023-02-15T00:14:57.740Z,9.17
2023-02-15T00:18:00.812Z,9.73
2023-02-15T00:21:09.864Z,10.07
2023-02-15T00:24:14.306Z,10.50
2023-02-15T00:27:17.069Z,10.50
2023-02-15T00:30:20.356Z,9.67
2023-02-15T00:33:26.119Z,9.77
2023-02-15T00:36:28.925Z,9.95
2023-02-15T00:39:31.696Z,10.57
2023-02-15T00:42:40.396Z,9.57
2023-02-15T00:45:47.260Z,9.47
2023-02-15T00:48:50.424Z,9.20
2023-02-15T00:51:53.154Z,9.70
2023-02-15T00:54:55.946Z,10.40
2023-02-15T00:57:58.769Z,9.55
2023-02-15T01:01:10.401Z,8.37
2023-02-15T01:04:13.383Z,10.30
2023-02-15T01:07:16.159Z,9.55
2023-02-15T01:10:19.147Z,8.88
2023-02-15T01:13:22.044Z,8.93
2023-02-15T01:16:27.862Z,9.57
2023-02-15T01:19:30.826Z,9.37
2023-02-15T01:22:35.866Z,9.20
2023-02-15T01:25:38.696Z,9.18
2023-02-15T01:28:43.664Z,8.80
2023-02-15T01:31:46.620Z,9.83
2023-02-15T01:34:50.750Z,9.23
2023-02-15T01:37:53.623Z,9.05
2023-02-15T01:41:22.587Z,9.05
2023-02-15T01:45:00.133Z,9.70
2023-02-15T01:48:19.226Z,8.17
2023-02-15T01:51:26.470Z,9.43
2023-02-15T01:54:33.711Z,9.57
2023-02-15T01:57:37.139Z,8.77
2023-02-15T02:00:39.914Z,9.02
2023-02-15T02:03:59.274Z,8.93
2023-02-15T02:07:03.462Z,8.93
2023-02-15T02:10:09.914Z,8.80
2023-02-15T02:13:12.728Z,8.88
2023-02-15T02:16:37.027Z,8.70
2023-02-15T02:19:58.735Z,8.70
2023-02-15T02:23:24.492Z,9.00
2023-02-15T02:27:02.463Z,8.80
2023-02-15T02:30:29.702Z,9.15
2023-02-15T02:34:00.644Z,8.73
2023-02-15T02:37:09.562Z,8.87
2023-02-15T02:40:31.633Z,8.83
2023-02-15T02:43:45.079Z,8.30
2023-02-15T02:46:59.527Z,9.07
2023-02-15T02:50:10.928Z,8.57
2023-02-15T02:53:13.683Z,8.60
2023-02-15T02:56:30.171Z,8.40
2023-02-15T02:59:38.015Z,7.88
2023-02-15T03:02:45.259Z,8.15
2023-02-15T03:05:50.666Z,8.55
2023-02-15T03:09:02.283Z,8.37
2023-02-15T03:12:05.828Z,7.93
2023-02-15T03:15:20.429Z,8.25
2023-02-15T03:18:28.072Z,8.40
2023-02-15T03:22:10.454Z,8.88
2023-02-15T03:25:26.493Z,8.27
2023-02-15T03:28:36.511Z,8.30
2023-02-15T03:31:43.735Z,8.00
2023-02-15T03:34:47.113Z,7.65
2023-02-15T03:37:54.926Z,7.22
2023-02-15T03:41:15.425Z,7.87
2023-02-15T03:44:50.972Z,8.87
2023-02-15T03:47:57.471Z,7.95
2023-02-15T03:51:24.338Z,8.23
2023-02-15T03:54:44.945Z,8.45
2023-02-15T03:58:06.178Z,7.53
2023-02-15T04:02:00.768Z,8.20
2023-02-15T04:05:03.544Z,8.38
2023-02-15T04:08:06.852Z,8.20
2023-02-15T04:11:09.816Z,7.07
2023-02-15T04:14:31.073Z,7.63
2023-02-15T04:17:33.876Z,7.43
2023-02-15T04:20:55.240Z,7.88
2023-02-15T04:24:16.621Z,7.18
2023-02-15T04:27:19.469Z,7.97
2023-02-15T04:30:29.146Z,8.33
2023-02-15T04:33:32.078Z,8.10
2023-02-15T04:36:34.881Z,7.50
2023-02-15T04:39:37.686Z,7.85
2023-02-15T04:42:41.715Z,7.30
2023-02-15T04:45:52.789Z,7.30
2023-02-15T04:48:56.078Z,7.23
2023-02-15T04:51:59.029Z,7.53
2023-02-15T04:55:02.253Z,7.30
2023-02-15T04:58:05.199Z,6.93
2023-02-15T05:01:09.551Z,6.93
2023-02-15T05:04:16.884Z,7.27
2023-02-15T05:07:21.409Z,7.78
2023-02-15T05:10:28.941Z,7.45
2023-02-15T05:13:31.948Z,7.65
2023-02-15T05:16:36.257Z,7.17
2023-02-15T05:19:39.095Z,7.83
2023-02-15T05:22:42.007Z,7.25
2023-02-15T05:26:09.319Z,7.03
2023-02-15T05:29:12.397Z,7.60
2023-02-15T05:32:16.389Z,7.17
2023-02-15T05:35:33.764Z,6.37
2023-02-15T05:38:41.267Z,7.20
2023-02-15T05:41:45.281Z,7.63
2023-02-15T05:44:47.968Z,7.25
2023-02-15T05:47:51.267Z,7.20
2023-02-15T05:51:03.212Z,7.07
2023-02-15T05:54:06.091Z,7.82
2023-02-15T05:57:08.879Z,7.50
2023-02-15T06:00:13.867Z,7.30
2023-02-15T06:03:19.519Z,7.63
2023-02-15T06:06:23.102Z,7.73
2023-02-15T06:09:25.942Z,7.22
2023-02-15T06:12:28.854Z,7.40
2023-02-15T06:15:31.754Z,7.85
2023-02-15T06:18:35.261Z,7.10
2023-02-15T06:21:38.437Z,6.87
2023-02-15T06:24:43.692Z,7.30
2023-02-15T06:27:46.428Z,7.65
2023-02-15T06:30:49.245Z,7.78
2023-02-15T06:33:52.356Z,7.20
2023-02-15T06:36:56.517Z,7.60
2023-02-15T06:39:59.644Z,8.38
2023-02-15T06:43:04.903Z,7.50
2023-02-15T06:46:10.451Z,6.93
2023-02-15T06:49:17.834Z,7.70
2023-02-15T06:52:20.842Z,7.63
2023-02-15T06:55:23.640Z,7.38
2023-02-15T06:58:26.331Z,7.22
2023-02-15T07:01:29.273Z,7.07
2023-02-15T07:04:32.489Z,7.53
2023-02-15T07:07:35.341Z,8.63
2023-02-15T07:10:38.220Z,8.55
2023-02-15T07:13:54.843Z,7.45
2023-02-15T07:16:57.892Z,7.10
2023-02-15T07:20:07.412Z,8.40
2023-02-15T07:26:58.509Z,7.95
2023-02-15T07:30:13.447Z,8.45
2023-02-15T07:33:25.201Z,7.68
2023-02-15T07:36:28.503Z,6.87
2023-02-15T07:39:37.974Z,7.03
2023-02-15T07:42:44.102Z,7.70
2023-02-15T07:45:54.273Z,7.82
2023-02-15T07:49:00.053Z,8.13
2023-02-15T07:52:07.402Z,17.97
2023-02-15T07:55:13.552Z,23.30
2023-02-15T07:58:45.637Z,22.15
2023-02-15T08:01:49.211Z,19.70
2023-02-15T08:04:52.439Z,18.70
2023-02-15T08:07:55.129Z,20.37
2023-02-15T08:11:24.028Z,20.97
2023-02-15T08:14:29.519Z,19.65
2023-02-15T08:17:37.816Z,19.85
2023-02-15T08:20:43.681Z,19.48
2023-02-15T08:23:47.271Z,18.77
2023-02-15T08:26:50.781Z,18.00
2023-02-15T08:29:55.125Z,15.52
2023-02-15T08:33:00.284Z,17.00
2023-02-15T08:36:23.424Z,14.68
2023-02-15T08:39:26.902Z,16.07
2023-02-15T08:42:33.900Z,11.52
2023-02-15T08:45:40.117Z,16.42
2023-02-15T08:48:43.270Z,15.18
2023-02-15T08:51:47.840Z,16.75
2023-02-15T08:54:50.736Z,18.07
2023-02-15T08:57:56.576Z,13.68
2023-02-15T09:00:59.943Z,16.25
2023-02-15T09:04:06.507Z,15.82
2023-02-15T09:07:09.573Z,17.95
2023-02-15T09:10:12.384Z,14.57
2023-02-15T09:13:15.132Z,15.48
2023-02-15T09:16:21.730Z,16.17
2023-02-15T09:19:25.383Z,15.80
2023-02-15T09:22:28.244Z,14.35
2023-02-15T09:25:31.174Z,14.57
2023-02-15T09:28:34.156Z,15.10
2023-02-15T09:31:45.463Z,16.17
2023-02-15T09:34:48.574Z,15.23
2023-02-15T09:37:51.307Z,16.73
2023-02-15T09:41:25.193Z,13.50
2023-02-15T09:44:57.254Z,9.82
2023-02-15T09:48:18.441Z,10.85
2023-02-15T09:51:46.935Z,9.50
2023-02-15T09:55:17.199Z,13.95
2023-02-15T09:58:55.657Z,10.00
2023-02-15T10:02:01.164Z,8.48
2023-02-15T10:05:04.073Z,8.88
2023-02-15T10:08:27.998Z,8.52
2023-02-15T10:11:51.103Z,7.97
2023-02-15T10:15:02.370Z,8.27
2023-02-15T10:18:26.636Z,7.18
2023-02-15T10:21:41.924Z,7.90
2023-02-15T10:25:14.871Z,8.32
2023-02-15T10:28:20.746Z,7.18
2023-02-15T10:32:18.593Z,6.23
2023-02-15T10:35:54.372Z,7.15
2023-02-15T10:39:06.653Z,6.65
2023-02-15T10:42:31.286Z,7.22
2023-02-15T10:45:58.087Z,6.82
2023-02-15T10:49:29.527Z,7.10
2023-02-15T10:53:03.388Z,6.65
2023-02-15T10:56:26.401Z,7.53
2023-02-15T10:59:44.889Z,6.82
2023-02-15T11:03:14.553Z,7.20
2023-02-15T11:06:31.963Z,6.90
2023-02-15T11:09:45.167Z,8.05
2023-02-15T11:12:49.949Z,8.77
2023-02-15T11:19:38.886Z,6.65
2023-02-15T11:22:48.944Z,6.10
2023-02-15T11:30:39.708Z,7.30
2023-02-15T11:33:56.398Z,6.75
2023-02-15T11:37:17.348Z,6.78
2023-02-15T11:40:31.782Z,6.23
2023-02-15T11:44:19.844Z,6.50
2023-02-15T11:47:27.025Z,6.03
2023-02-15T11:50:39.821Z,6.60
2023-02-15T11:53:46.972Z,6.60
2023-02-15T11:56:50.053Z,6.37
2023-02-15T12:00:16.171Z,6.47
2023-02-15T12:07:29.220Z,6.30
2023-02-15T12:10:40.235Z,6.47
2023-02-15T12:14:07.208Z,6.10
2023-02-15T12:17:14.735Z,6.38
2023-02-15T12:20:31.156Z,6.85
2023-02-15T12:23:40.911Z,6.10
2023-02-15T12:26:44.933Z,5.50
2023-02-15T12:29:54.886Z,5.50
2023-02-15T12:33:18.078Z,6.00
2023-02-15T12:36:23.871Z,6.00
2023-02-15T12:39:29.784Z,5.70
2023-02-15T12:42:44.560Z,6.40
2023-02-15T12:45:47.469Z,6.80
2023-02-15T12:49:28.905Z,6.63
2023-02-15T12:52:31.929Z,6.63
2023-02-15T12:55:34.979Z,6.28
2023-02-15T12:58:42.545Z,6.75
2023-02-15T13:01:47.202Z,6.60
2023-02-15T13:04:51.657Z,6.13
2023-02-15T13:08:17.898Z,7.03
2023-02-15T13:11:31.212Z,6.72
2023-02-15T13:14:35.697Z,6.22
2023-02-15T13:17:42.516Z,5.80
2023-02-15T13:20:46.799Z,6.20
2023-02-15T13:23:54.510Z,6.65
2023-02-15T13:27:14.435Z,5.72
2023-02-15T13:30:24.940Z,6.03
2023-02-15T13:33:39.512Z,6.10
2023-02-15T13:36:44.542Z,6.22
2023-02-15T13:40:06.300Z,6.70
2023-02-15T13:43:22.212Z,5.80
2023-02-15T13:46:46.476Z,6.47
2023-02-15T13:50:00.609Z,5.90
2023-02-15T13:53:29.901Z,6.35
2023-02-15T13:56:46.699Z,5.47
2023-02-15T14:00:17.758Z,6.10
2023-02-15T14:03:38.662Z,6.03
2023-02-15T14:07:06.374Z,5.53
2023-02-15T14:10:45.182Z,5.72
2023-02-15T14:13:57.261Z,5.85
2023-02-15T14:17:13.414Z,5.57
2023-02-15T14:20:29.337Z,5.57
2023-02-15T14:23:41.352Z,5.87
2023-02-15T14:27:05.741Z,5.43
2023-02-15T14:30:24.683Z,5.28
2023-02-15T14:33:44.057Z,5.47
2023-02-15T14:36:47.163Z,5.55
2023-02-15T14:40:33.745Z,5.63
2023-02-15T14:43:48.115Z,5.70
2023-02-15T14:47:03.978Z,5.57
2023-02-15T14:50:32.186Z,5.28
2023-02-15T14:53:46.733Z,4.97
2023-02-15T14:57:01.503Z,5.53
2023-02-15T15:00:32.352Z,4.88
2023-02-15T15:03:36.736Z,5.10
2023-02-15T15:06:43.178Z,5.90
2023-02-15T15:09:58.993Z,5.13
2023-02-15T15:13:36.349Z,5.00
2023-02-15T15:16:39.207Z,4.85
2023-02-15T15:19:54.183Z,4.68
2023-02-15T15:23:16.496Z,4.80
2023-02-15T15:26:26.981Z,5.03
2023-02-15T15:29:43.840Z,5.27
2023-02-15T15:32:55.975Z,5.10
2023-02-15T15:36:33.258Z,5.88
2023-02-15T15:40:14.489Z,5.60
2023-02-15T15:43:42.532Z,4.82
2023-02-15T15:47:21.263Z,5.10
2023-02-15T15:50:24.641Z,5.28
2023-02-15T15:53:46.007Z,4.82
2023-02-15T15:56:59.325Z,5.38
2023-02-15T16:00:04.262Z,5.55
2023-02-15T16:03:18.134Z,5.07
2023-02-15T16:06:29.604Z,5.85
2023-02-15T16:09:33.125Z,5.57
2023-02-15T16:12:40.243Z,5.78
2023-02-15T16:15:53.920Z,5.50
2023-02-15T16:19:01.256Z,5.57
2023-02-15T16:22:16.534Z,6.72
2023-02-15T16:25:19.584Z,7.72
2023-02-15T16:28:23.488Z,6.38
2023-02-15T16:31:27.217Z,9.18
2023-02-15T16:34:33.993Z,5.90
2023-02-15T16:37:38.188Z,7.35
2023-02-15T16:40:53.554Z,6.90
2023-02-15T16:44:07.859Z,7.05
2023-02-15T16:47:20.641Z,7.00
2023-02-15T16:50:49.580Z,7.60
2023-02-15T16:53:55.614Z,6.78
2023-02-15T16:56:59.969Z,7.13
2023-02-15T17:00:22.264Z,7.75
2023-02-15T17:03:28.839Z,8.63
2023-02-15T17:06:33.844Z,7.33
2023-02-15T17:09:50.090Z,8.40
2023-02-15T17:12:56.935Z,7.60
2023-02-15T17:16:04.186Z,8.50
2023-02-15T17:19:16.234Z,8.15
2023-02-15T17:22:28.416Z,8.53
2023-02-15T17:25:43.896Z,8.40
2023-02-15T17:29:15.145Z,8.77
2023-02-15T17:32:23.233Z,8.70
2023-02-15T17:35:33.312Z,9.85
2023-02-15T17:38:42.451Z,8.27
2023-02-15T17:41:48.461Z,8.73
2023-02-15T17:44:55.507Z,8.45
2023-02-15T17:48:03.297Z,8.68
2023-02-15T17:51:14.375Z,9.55
2023-02-15T17:54:39.239Z,9.43
2023-02-15T17:57:44.316Z,10.32
2023-02-15T18:01:11.165Z,9.40
2023-02-15T18:04:34.856Z,11.18
2023-02-15T18:07:58.064Z,10.52
2023-02-15T18:11:23.886Z,11.57
2023-02-15T18:14:28.895Z,10.93
2023-02-15T18:17:46.488Z,14.63
2023-02-15T18:20:51.684Z,14.82
2023-02-15T18:23:56.541Z,13.13
2023-02-15T18:27:01.167Z,12.93
2023-02-15T18:30:06.195Z,12.63
2023-02-15T18:33:34.974Z,13.07
2023-02-15T18:36:46.337Z,12.25
2023-02-15T18:39:54.983Z,13.45
2023-02-15T18:43:00.389Z,13.27
2023-02-15T18:46:06.910Z,14.45
2023-02-15T18:49:15.411Z,13.65
2023-02-15T18:52:24.102Z,14.00
2023-02-15T18:55:33.162Z,14.82
2023-02-15T18:58:40.980Z,14.67
2023-02-15T19:01:46.581Z,14.45
2023-02-15T19:04:53.901Z,13.32
2023-02-15T19:08:01.164Z,14.25
2023-02-15T19:11:33.557Z,13.32
2023-02-15T19:14:39.070Z,13.83
2023-02-15T19:17:43.745Z,13.82
2023-02-15T19:20:50.408Z,14.38
2023-02-15T19:24:04.425Z,13.80
2023-02-15T19:27:35.847Z,15.50
2023-02-15T19:30:40.814Z,14.50
2023-02-15T19:33:46.650Z,14.45
2023-02-15T19:36:54.506Z,14.18
2023-02-15T19:40:05.067Z,15.43
2023-02-15T19:43:26.469Z,15.38
2023-02-15T19:46:32.377Z,16.67
2023-02-15T19:49:37.047Z,17.00
2023-02-15T19:52:43.058Z,16.83
2023-02-15T19:55:48.060Z,17.88
2023-02-15T19:59:11.592Z,17.17
2023-02-15T20:02:20.496Z,16.57
2023-02-15T20:05:29.006Z,16.30
2023-02-15T20:08:35.619Z,16.45
2023-02-15T20:11:40.670Z,17.20
2023-02-15T20:14:46.176Z,19.67
2023-02-15T20:17:53.171Z,19.53
2023-02-15T20:20:58.586Z,17.38
2023-02-15T20:24:06.420Z,20.00
2023-02-15T20:27:19.874Z,17.77
2023-02-15T20:30:30.439Z,17.40
2023-02-15T20:33:36.212Z,17.03
2023-02-15T20:36:42.728Z,18.20
2023-02-15T20:39:48.841Z,17.52
2023-02-15T20:42:57.185Z,18.23
2023-02-15T20:46:07.642Z,19.45
2023-02-15T20:49:12.754Z,18.77
2023-02-15T20:52:21.456Z,19.42
2023-02-15T20:55:30.768Z,18.65
2023-02-15T20:58:36.878Z,18.23
2023-02-15T21:01:42.339Z,17.88
2023-02-15T21:04:47.305Z,17.67
2023-02-15T21:07:54.408Z,18.63
2023-02-15T21:11:04.815Z,17.80
2023-02-15T21:14:23.501Z,18.95
2023-02-15T21:17:29.534Z,18.45
2023-02-15T21:20:46.321Z,17.90
2023-02-15T21:23:57.477Z,19.00
2023-02-15T21:27:04.279Z,18.40
2023-02-15T21:30:18.498Z,17.40
2023-02-15T21:33:23.355Z,18.10
2023-02-15T21:36:28.457Z,18.17
2023-02-15T21:39:37.282Z,17.90
2023-02-15T21:43:00.472Z,17.08
2023-02-15T21:46:41.499Z,18.83
2023-02-15T21:49:45.858Z,17.27
2023-02-15T21:52:50.691Z,18.40
2023-02-15T21:55:58.430Z,18.17
2023-02-15T21:59:02.105Z,19.40
2023-02-15T22:02:34.836Z,20.65
2023-02-15T22:05:44.186Z,18.02
2023-02-15T22:08:50.238Z,18.67
2023-02-15T22:11:54.607Z,17.65
2023-02-15T22:14:57.377Z,18.60
2023-02-15T22:18:00.236Z,18.90
2023-02-15T22:21:04.576Z,18.83
2023-02-15T22:24:07.590Z,19.20
2023-02-15T22:27:34.428Z,18.23
2023-02-15T22:30:37.604Z,18.80
2023-02-15T22:33:42.069Z,17.80
2023-02-15T22:36:45.996Z,18.13
2023-02-15T22:39:49.085Z,17.80
2023-02-15T22:42:54.158Z,17.45
2023-02-15T22:46:01.760Z,17.55
2023-02-15T22:49:07.846Z,17.63
2023-02-15T22:52:17.549Z,18.30
2023-02-15T22:55:28.059Z,17.00
2023-02-15T22:58:31.501Z,17.67
2023-02-15T23:01:36.699Z,17.92
2023-02-15T23:04:42.851Z,16.83
2023-02-15T23:07:55.411Z,18.27
2023-02-15T23:10:58.388Z,17.27
2023-02-15T23:14:03.210Z,17.30
2023-02-15T23:17:05.952Z,16.45
2023-02-15T23:20:16.955Z,16.17
2023-02-15T23:23:25.589Z,16.30
2023-02-15T23:26:33.930Z,16.20
2023-02-15T23:29:38.625Z,15.45
2023-02-15T23:32:42.158Z,16.25
2023-02-15T23:35:45.359Z,14.85
2023-02-15T23:38:48.386Z,15.85
2023-02-15T23:41:51.804Z,15.07
2023-02-15T23:44:54.960Z,14.75
2023-02-15T23:48:16.373Z,15.73
2023-02-15T23:51:19.976Z,13.95
2023-02-15T23:54:25.264Z,13.93
2023-02-15T23:57:28.098Z,13.90
